sensor_id;sensor_type;location;lat;lon;timestamp;P1;durP1;ratioP1;P2;durP2;ratioP2
13805;SDS011;6974;53.606;9.872;2022-12-10T00:01:25;26.07;;;17.50;;
13805;SDS011;6974;53.606;9.872;2022-12-10T00:03:53;27.10;;;18.57;;
13805;SDS011;6974;53.606;9.872;2022-12-10T00:06:22;28.53;;;20.10;;
13805;SDS011;6974;53.606;9.872;2022-12-10T00:08:50;32.53;;;21.00;;
13805;SDS011;6974;53.606;9.872;2022-12-10T00:11:18;36.20;;;22.90;;
13805;SDS011;6974;53.606;9.872;2022-12-10T00:13:46;34.50;;;22.40;;
13805;SDS011;6974;53.606;9.872;2022-12-10T00:16:14;38.37;;;23.10;;
13805;SDS011;6974;53.606;9.872;2022-12-10T00:18:42;29.27;;;19.60;;
13805;SDS011;6974;53.606;9.872;2022-12-10T00:21:10;33.17;;;22.33;;
13805;SDS011;6974;53.606;9.872;2022-12-10T00:23:40;34.20;;;22.27;;
13805;SDS011;6974;53.606;9.872;2022-12-10T00:26:07;33.37;;;22.27;;
13805;SDS011;6974;53.606;9.872;2022-12-10T00:28:38;32.63;;;21.60;;
13805;SDS011;6974;53.606;9.872;2022-12-10T00:31:07;34.47;;;21.33;;
13805;SDS011;6974;53.606;9.872;2022-12-10T00:33:36;35.40;;;23.43;;
13805;SDS011;6974;53.606;9.872;2022-12-10T00:36:03;36.87;;;23.80;;
13805;SDS011;6974;53.606;9.872;2022-12-10T00:38:32;38.03;;;23.53;;
13805;SDS011;6974;53.606;9.872;2022-12-10T00:41:00;41.33;;;25.57;;
13805;SDS011;6974;53.606;9.872;2022-12-10T00:43:28;42.17;;;25.40;;
13805;SDS011;6974;53.606;9.872;2022-12-10T00:45:54;40.10;;;25.73;;
13805;SDS011;6974;53.606;9.872;2022-12-10T00:48:22;40.03;;;24.20;;
13805;SDS011;6974;53.606;9.872;2022-12-10T00:50:55;42.90;;;25.73;;
13805;SDS011;6974;53.606;9.872;2022-12-10T00:53:23;43.13;;;24.80;;
13805;SDS011;6974;53.606;9.872;2022-12-10T00:55:51;42.03;;;24.80;;
13805;SDS011;6974;53.606;9.872;2022-12-10T00:58:20;44.10;;;25.90;;
13805;SDS011;6974;53.606;9.872;2022-12-10T01:00:47;43.80;;;24.60;;
13805;SDS011;6974;53.606;9.872;2022-12-10T01:03:14;37.30;;;23.37;;
13805;SDS011;6974;53.606;9.872;2022-12-10T01:05:41;45.13;;;26.67;;
13805;SDS011;6974;53.606;9.872;2022-12-10T01:08:08;40.03;;;25.67;;
13805;SDS011;6974;53.606;9.872;2022-12-10T01:10:35;41.93;;;24.63;;
13805;SDS011;6974;53.606;9.872;2022-12-10T01:13:02;42.17;;;24.03;;
13805;SDS011;6974;53.606;9.872;2022-12-10T01:15:31;42.13;;;24.80;;
13805;SDS011;6974;53.606;9.872;2022-12-10T01:18:03;41.63;;;25.67;;
13805;SDS011;6974;53.606;9.872;2022-12-10T01:20:30;41.73;;;24.20;;
13805;SDS011;6974;53.606;9.872;2022-12-10T01:23:00;40.93;;;23.90;;
13805;SDS011;6974;53.606;9.872;2022-12-10T01:25:26;41.00;;;23.67;;
13805;SDS011;6974;53.606;9.872;2022-12-10T01:27:53;40.00;;;23.63;;
13805;SDS011;6974;53.606;9.872;2022-12-10T01:30:20;35.63;;;21.97;;
13805;SDS011;6974;53.606;9.872;2022-12-10T01:32:48;40.37;;;22.47;;
13805;SDS011;6974;53.606;9.872;2022-12-10T01:35:15;38.23;;;22.57;;
13805;SDS011;6974;53.606;9.872;2022-12-10T01:37:42;34.77;;;22.33;;
13805;SDS011;6974;53.606;9.872;2022-12-10T01:40:09;35.33;;;21.47;;
13805;SDS011;6974;53.606;9.872;2022-12-10T01:42:37;36.33;;;21.60;;
13805;SDS011;6974;53.606;9.872;2022-12-10T01:45:06;35.63;;;22.30;;
13805;SDS011;6974;53.606;9.872;2022-12-10T01:47:36;32.13;;;20.17;;
13805;SDS011;6974;53.606;9.872;2022-12-10T01:50:04;37.10;;;22.10;;
13805;SDS011;6974;53.606;9.872;2022-12-10T01:52:33;32.47;;;20.03;;
13805;SDS011;6974;53.606;9.872;2022-12-10T01:55:01;31.43;;;20.23;;
13805;SDS011;6974;53.606;9.872;2022-12-10T01:57:28;34.17;;;20.87;;
13805;SDS011;6974;53.606;9.872;2022-12-10T01:59:56;32.57;;;20.27;;
13805;SDS011;6974;53.606;9.872;2022-12-10T02:02:28;32.37;;;19.87;;
13805;SDS011;6974;53.606;9.872;2022-12-10T02:05:07;36.80;;;21.83;;
13805;SDS011;6974;53.606;9.872;2022-12-10T02:07:45;28.50;;;18.73;;
13805;SDS011;6974;53.606;9.872;2022-12-10T02:10:26;30.03;;;19.20;;
13805;SDS011;6974;53.606;9.872;2022-12-10T02:13:04;31.00;;;19.20;;
13805;SDS011;6974;53.606;9.872;2022-12-10T02:15:35;31.17;;;20.00;;
13805;SDS011;6974;53.606;9.872;2022-12-10T02:18:08;30.03;;;17.93;;
13805;SDS011;6974;53.606;9.872;2022-12-10T02:20:39;29.77;;;19.37;;
13805;SDS011;6974;53.606;9.872;2022-12-10T02:23:09;28.73;;;18.80;;
13805;SDS011;6974;53.606;9.872;2022-12-10T02:25:40;25.67;;;17.97;;
13805;SDS011;6974;53.606;9.872;2022-12-10T02:28:13;26.97;;;17.47;;
13805;SDS011;6974;53.606;9.872;2022-12-10T02:30:48;28.37;;;18.27;;
13805;SDS011;6974;53.606;9.872;2022-12-10T02:33:16;27.53;;;18.10;;
13805;SDS011;6974;53.606;9.872;2022-12-10T02:35:45;27.77;;;18.17;;
13805;SDS011;6974;53.606;9.872;2022-12-10T02:38:15;26.10;;;17.03;;
13805;SDS011;6974;53.606;9.872;2022-12-10T02:40:46;26.63;;;17.70;;
13805;SDS011;6974;53.606;9.872;2022-12-10T02:43:16;25.63;;;17.10;;
13805;SDS011;6974;53.606;9.872;2022-12-10T02:45:43;25.67;;;16.43;;
13805;SDS011;6974;53.606;9.872;2022-12-10T02:48:12;26.57;;;16.33;;
13805;SDS011;6974;53.606;9.872;2022-12-10T02:50:40;26.77;;;17.10;;
13805;SDS011;6974;53.606;9.872;2022-12-10T02:53:07;25.60;;;16.47;;
13805;SDS011;6974;53.606;9.872;2022-12-10T02:55:38;23.70;;;16.47;;
13805;SDS011;6974;53.606;9.872;2022-12-10T02:58:15;24.77;;;16.47;;
13805;SDS011;6974;53.606;9.872;2022-12-10T03:00:54;25.80;;;16.03;;
13805;SDS011;6974;53.606;9.872;2022-12-10T03:03:31;23.37;;;15.97;;
13805;SDS011;6974;53.606;9.872;2022-12-10T03:06:05;20.33;;;15.00;;
13805;SDS011;6974;53.606;9.872;2022-12-10T03:08:39;22.43;;;15.17;;
13805;SDS011;6974;53.606;9.872;2022-12-10T03:11:11;16.77;;;12.40;;
13805;SDS011;6974;53.606;9.872;2022-12-10T03:13:41;18.23;;;12.13;;
13805;SDS011;6974;53.606;9.872;2022-12-10T03:16:14;18.37;;;13.13;;
13805;SDS011;6974;53.606;9.872;2022-12-10T03:18:44;19.97;;;13.83;;
13805;SDS011;6974;53.606;9.872;2022-12-10T03:21:13;19.47;;;14.03;;
13805;SDS011;6974;53.606;9.872;2022-12-10T03:23:43;19.87;;;13.13;;
13805;SDS011;6974;53.606;9.872;2022-12-10T03:26:13;19.20;;;13.50;;
13805;SDS011;6974;53.606;9.872;2022-12-10T03:28:41;19.03;;;14.00;;
13805;SDS011;6974;53.606;9.872;2022-12-10T03:31:12;19.90;;;13.83;;
13805;SDS011;6974;53.606;9.872;2022-12-10T03:33:40;19.50;;;13.43;;
13805;SDS011;6974;53.606;9.872;2022-12-10T03:36:10;18.70;;;13.10;;
13805;SDS011;6974;53.606;9.872;2022-12-10T03:38:38;17.97;;;12.57;;
13805;SDS011;6974;53.606;9.872;2022-12-10T03:41:06;19.33;;;13.23;;
13805;SDS011;6974;53.606;9.872;2022-12-10T03:43:33;17.63;;;13.40;;
13805;SDS011;6974;53.606;9.872;2022-12-10T03:46:00;20.00;;;13.53;;
13805;SDS011;6974;53.606;9.872;2022-12-10T03:48:27;16.33;;;12.23;;
13805;SDS011;6974;53.606;9.872;2022-12-10T03:50:54;20.27;;;12.83;;
13805;SDS011;6974;53.606;9.872;2022-12-10T03:53:22;16.63;;;12.47;;
13805;SDS011;6974;53.606;9.872;2022-12-10T03:55:49;16.67;;;12.40;;
13805;SDS011;6974;53.606;9.872;2022-12-10T03:58:15;17.50;;;12.13;;
13805;SDS011;6974;53.606;9.872;2022-12-10T04:00:42;19.20;;;13.80;;
13805;SDS011;6974;53.606;9.872;2022-12-10T04:03:09;18.23;;;12.90;;
13805;SDS011;6974;53.606;9.872;2022-12-10T04:05:36;19.10;;;13.67;;
13805;SDS011;6974;53.606;9.872;2022-12-10T04:08:03;16.97;;;11.90;;
13805;SDS011;6974;53.606;9.872;2022-12-10T04:10:35;17.50;;;11.77;;
13805;SDS011;6974;53.606;9.872;2022-12-10T04:13:03;17.30;;;12.47;;
13805;SDS011;6974;53.606;9.872;2022-12-10T04:15:47;17.13;;;12.83;;
13805;SDS011;6974;53.606;9.872;2022-12-10T04:18:32;15.93;;;11.17;;
13805;SDS011;6974;53.606;9.872;2022-12-10T04:20:59;16.23;;;12.10;;
13805;SDS011;6974;53.606;9.872;2022-12-10T04:23:43;16.73;;;12.63;;
13805;SDS011;6974;53.606;9.872;2022-12-10T04:26:29;18.20;;;12.50;;
13805;SDS011;6974;53.606;9.872;2022-12-10T04:29:13;15.00;;;11.50;;
13805;SDS011;6974;53.606;9.872;2022-12-10T04:31:40;14.23;;;10.43;;
13805;SDS011;6974;53.606;9.872;2022-12-10T04:34:07;15.47;;;11.47;;
13805;SDS011;6974;53.606;9.872;2022-12-10T04:36:33;15.27;;;10.50;;
13805;SDS011;6974;53.606;9.872;2022-12-10T04:39:00;15.57;;;11.90;;
13805;SDS011;6974;53.606;9.872;2022-12-10T04:41:29;15.70;;;12.37;;
13805;SDS011;6974;53.606;9.872;2022-12-10T04:43:56;14.20;;;10.77;;
13805;SDS011;6974;53.606;9.872;2022-12-10T04:46:22;15.60;;;11.97;;
13805;SDS011;6974;53.606;9.872;2022-12-10T04:48:49;16.37;;;12.43;;
13805;SDS011;6974;53.606;9.872;2022-12-10T04:51:16;15.63;;;12.57;;
13805;SDS011;6974;53.606;9.872;2022-12-10T04:53:43;17.60;;;13.13;;
13805;SDS011;6974;53.606;9.872;2022-12-10T04:56:10;16.83;;;12.50;;
13805;SDS011;6974;53.606;9.872;2022-12-10T04:58:38;17.13;;;12.53;;
13805;SDS011;6974;53.606;9.872;2022-12-10T05:01:06;15.70;;;11.97;;
13805;SDS011;6974;53.606;9.872;2022-12-10T05:03:34;15.93;;;12.23;;
13805;SDS011;6974;53.606;9.872;2022-12-10T05:06:01;17.40;;;12.53;;
13805;SDS011;6974;53.606;9.872;2022-12-10T05:08:29;16.17;;;12.70;;
13805;SDS011;6974;53.606;9.872;2022-12-10T05:10:59;15.23;;;11.70;;
13805;SDS011;6974;53.606;9.872;2022-12-10T05:13:27;15.17;;;11.03;;
13805;SDS011;6974;53.606;9.872;2022-12-10T05:15:56;16.73;;;11.47;;
13805;SDS011;6974;53.606;9.872;2022-12-10T05:18:23;14.73;;;11.00;;
13805;SDS011;6974;53.606;9.872;2022-12-10T05:20:50;16.33;;;11.43;;
13805;SDS011;6974;53.606;9.872;2022-12-10T05:23:17;15.77;;;11.63;;
13805;SDS011;6974;53.606;9.872;2022-12-10T05:25:59;14.10;;;10.93;;
13805;SDS011;6974;53.606;9.872;2022-12-10T05:28:27;14.07;;;11.17;;
13805;SDS011;6974;53.606;9.872;2022-12-10T05:30:56;14.73;;;10.63;;
13805;SDS011;6974;53.606;9.872;2022-12-10T05:33:23;14.13;;;10.97;;
13805;SDS011;6974;53.606;9.872;2022-12-10T05:35:51;14.10;;;10.40;;
13805;SDS011;6974;53.606;9.872;2022-12-10T05:38:19;14.83;;;11.33;;
13805;SDS011;6974;53.606;9.872;2022-12-10T05:40:47;15.40;;;11.00;;
13805;SDS011;6974;53.606;9.872;2022-12-10T05:43:14;14.47;;;11.07;;
13805;SDS011;6974;53.606;9.872;2022-12-10T05:45:41;14.23;;;10.27;;
13805;SDS011;6974;53.606;9.872;2022-12-10T05:48:10;14.37;;;10.93;;
13805;SDS011;6974;53.606;9.872;2022-12-10T05:50:37;13.30;;;10.57;;
13805;SDS011;6974;53.606;9.872;2022-12-10T05:53:05;14.47;;;11.07;;
13805;SDS011;6974;53.606;9.872;2022-12-10T05:55:32;13.33;;;10.43;;
13805;SDS011;6974;53.606;9.872;2022-12-10T05:57:59;13.57;;;10.90;;
13805;SDS011;6974;53.606;9.872;2022-12-10T06:00:26;14.30;;;10.67;;
13805;SDS011;6974;53.606;9.872;2022-12-10T06:02:53;15.33;;;10.90;;
13805;SDS011;6974;53.606;9.872;2022-12-10T06:05:22;14.93;;;11.13;;
13805;SDS011;6974;53.606;9.872;2022-12-10T06:07:48;13.83;;;10.77;;
13805;SDS011;6974;53.606;9.872;2022-12-10T06:10:15;14.03;;;10.43;;
13805;SDS011;6974;53.606;9.872;2022-12-10T06:12:42;13.50;;;10.67;;
13805;SDS011;6974;53.606;9.872;2022-12-10T06:15:09;14.33;;;10.77;;
13805;SDS011;6974;53.606;9.872;2022-12-10T06:17:36;12.13;;;10.33;;
13805;SDS011;6974;53.606;9.872;2022-12-10T06:20:03;12.80;;;10.27;;
13805;SDS011;6974;53.606;9.872;2022-12-10T06:22:32;13.47;;;9.57;;
13805;SDS011;6974;53.606;9.872;2022-12-10T06:25:00;13.10;;;10.60;;
13805;SDS011;6974;53.606;9.872;2022-12-10T06:27:28;12.77;;;9.77;;
13805;SDS011;6974;53.606;9.872;2022-12-10T06:29:56;13.90;;;10.40;;
13805;SDS011;6974;53.606;9.872;2022-12-10T06:32:23;13.60;;;10.00;;
13805;SDS011;6974;53.606;9.872;2022-12-10T06:34:50;15.13;;;10.37;;
13805;SDS011;6974;53.606;9.872;2022-12-10T06:37:16;13.13;;;9.83;;
13805;SDS011;6974;53.606;9.872;2022-12-10T06:39:45;14.93;;;11.70;;
13805;SDS011;6974;53.606;9.872;2022-12-10T06:42:11;15.13;;;10.70;;
13805;SDS011;6974;53.606;9.872;2022-12-10T06:44:39;16.03;;;11.70;;
13805;SDS011;6974;53.606;9.872;2022-12-10T06:47:05;14.63;;;11.03;;
13805;SDS011;6974;53.606;9.872;2022-12-10T06:49:32;15.50;;;11.87;;
13805;SDS011;6974;53.606;9.872;2022-12-10T06:51:59;14.07;;;10.87;;
13805;SDS011;6974;53.606;9.872;2022-12-10T06:54:26;13.93;;;11.03;;
13805;SDS011;6974;53.606;9.872;2022-12-10T06:56:54;15.37;;;11.07;;
13805;SDS011;6974;53.606;9.872;2022-12-10T06:59:21;13.60;;;10.00;;
13805;SDS011;6974;53.606;9.872;2022-12-10T07:01:48;15.70;;;11.30;;
13805;SDS011;6974;53.606;9.872;2022-12-10T07:04:15;12.93;;;10.67;;
13805;SDS011;6974;53.606;9.872;2022-12-10T07:06:42;16.53;;;12.33;;
13805;SDS011;6974;53.606;9.872;2022-12-10T07:09:09;15.53;;;11.70;;
13805;SDS011;6974;53.606;9.872;2022-12-10T07:11:36;14.13;;;11.07;;
13805;SDS011;6974;53.606;9.872;2022-12-10T07:14:05;13.93;;;11.60;;
13805;SDS011;6974;53.606;9.872;2022-12-10T07:16:32;15.97;;;12.43;;
13805;SDS011;6974;53.606;9.872;2022-12-10T07:19:00;15.40;;;12.53;;
13805;SDS011;6974;53.606;9.872;2022-12-10T07:21:29;16.20;;;12.60;;
13805;SDS011;6974;53.606;9.872;2022-12-10T07:23:59;16.90;;;12.57;;
13805;SDS011;6974;53.606;9.872;2022-12-10T07:26:27;16.40;;;12.60;;
13805;SDS011;6974;53.606;9.872;2022-12-10T07:28:56;16.07;;;12.03;;
13805;SDS011;6974;53.606;9.872;2022-12-10T07:31:25;16.17;;;13.10;;
13805;SDS011;6974;53.606;9.872;2022-12-10T07:33:53;16.30;;;12.97;;
13805;SDS011;6974;53.606;9.872;2022-12-10T07:36:22;17.17;;;12.10;;
13805;SDS011;6974;53.606;9.872;2022-12-10T07:38:49;13.50;;;10.87;;
13805;SDS011;6974;53.606;9.872;2022-12-10T07:41:16;12.53;;;10.23;;
13805;SDS011;6974;53.606;9.872;2022-12-10T07:43:44;13.80;;;10.80;;
13805;SDS011;6974;53.606;9.872;2022-12-10T07:46:12;16.17;;;10.47;;
13805;SDS011;6974;53.606;9.872;2022-12-10T07:48:45;14.90;;;11.23;;
13805;SDS011;6974;53.606;9.872;2022-12-10T07:51:13;13.93;;;10.77;;
13805;SDS011;6974;53.606;9.872;2022-12-10T07:53:41;16.33;;;10.50;;
13805;SDS011;6974;53.606;9.872;2022-12-10T07:56:08;12.40;;;9.80;;
13805;SDS011;6974;53.606;9.872;2022-12-10T07:58:35;16.63;;;11.23;;
13805;SDS011;6974;53.606;9.872;2022-12-10T08:01:06;16.13;;;11.53;;
13805;SDS011;6974;53.606;9.872;2022-12-10T08:03:33;14.17;;;11.00;;
13805;SDS011;6974;53.606;9.872;2022-12-10T08:06:02;14.27;;;11.07;;
13805;SDS011;6974;53.606;9.872;2022-12-10T08:08:30;13.90;;;10.47;;
13805;SDS011;6974;53.606;9.872;2022-12-10T08:10:58;13.83;;;9.77;;
13805;SDS011;6974;53.606;9.872;2022-12-10T08:13:26;14.93;;;11.10;;
13805;SDS011;6974;53.606;9.872;2022-12-10T08:15:53;14.27;;;10.73;;
13805;SDS011;6974;53.606;9.872;2022-12-10T08:18:20;13.53;;;10.13;;
13805;SDS011;6974;53.606;9.872;2022-12-10T08:20:47;12.23;;;10.37;;
13805;SDS011;6974;53.606;9.872;2022-12-10T08:23:15;12.50;;;11.20;;
13805;SDS011;6974;53.606;9.872;2022-12-10T08:25:42;13.20;;;11.30;;
13805;SDS011;6974;53.606;9.872;2022-12-10T08:28:09;13.80;;;10.57;;
13805;SDS011;6974;53.606;9.872;2022-12-10T08:30:35;13.73;;;10.57;;
13805;SDS011;6974;53.606;9.872;2022-12-10T08:33:02;14.10;;;10.80;;
13805;SDS011;6974;53.606;9.872;2022-12-10T08:35:29;14.10;;;10.90;;
13805;SDS011;6974;53.606;9.872;2022-12-10T08:37:56;13.97;;;11.53;;
13805;SDS011;6974;53.606;9.872;2022-12-10T08:40:24;16.00;;;11.53;;
13805;SDS011;6974;53.606;9.872;2022-12-10T08:42:51;12.57;;;11.07;;
13805;SDS011;6974;53.606;9.872;2022-12-10T08:45:18;13.83;;;11.20;;
13805;SDS011;6974;53.606;9.872;2022-12-10T08:47:45;14.57;;;11.67;;
13805;SDS011;6974;53.606;9.872;2022-12-10T08:50:12;14.97;;;11.70;;
13805;SDS011;6974;53.606;9.872;2022-12-10T08:52:39;16.43;;;11.93;;
13805;SDS011;6974;53.606;9.872;2022-12-10T08:55:07;14.57;;;11.37;;
13805;SDS011;6974;53.606;9.872;2022-12-10T08:57:35;13.90;;;11.27;;
13805;SDS011;6974;53.606;9.872;2022-12-10T09:00:03;15.10;;;11.67;;
13805;SDS011;6974;53.606;9.872;2022-12-10T09:02:31;15.03;;;12.40;;
13805;SDS011;6974;53.606;9.872;2022-12-10T09:04:58;15.00;;;12.67;;
13805;SDS011;6974;53.606;9.872;2022-12-10T09:07:26;16.63;;;12.93;;
13805;SDS011;6974;53.606;9.872;2022-12-10T09:09:54;14.90;;;12.40;;
13805;SDS011;6974;53.606;9.872;2022-12-10T09:12:21;14.73;;;12.60;;
13805;SDS011;6974;53.606;9.872;2022-12-10T09:14:49;17.20;;;13.20;;
13805;SDS011;6974;53.606;9.872;2022-12-10T09:17:16;13.70;;;12.27;;
13805;SDS011;6974;53.606;9.872;2022-12-10T09:19:42;17.33;;;13.97;;
13805;SDS011;6974;53.606;9.872;2022-12-10T09:22:09;16.30;;;13.27;;
13805;SDS011;6974;53.606;9.872;2022-12-10T09:24:36;15.33;;;12.80;;
13805;SDS011;6974;53.606;9.872;2022-12-10T09:27:03;15.73;;;13.33;;
13805;SDS011;6974;53.606;9.872;2022-12-10T09:29:30;16.33;;;13.60;;
13805;SDS011;6974;53.606;9.872;2022-12-10T09:31:58;15.30;;;12.93;;
13805;SDS011;6974;53.606;9.872;2022-12-10T09:34:25;17.00;;;12.80;;
13805;SDS011;6974;53.606;9.872;2022-12-10T09:36:52;16.60;;;14.00;;
13805;SDS011;6974;53.606;9.872;2022-12-10T09:39:18;16.07;;;13.20;;
13805;SDS011;6974;53.606;9.872;2022-12-10T09:44:46;16.20;;;13.93;;
13805;SDS011;6974;53.606;9.872;2022-12-10T09:47:23;15.87;;;12.97;;
13805;SDS011;6974;53.606;9.872;2022-12-10T09:49:55;15.13;;;12.27;;
13805;SDS011;6974;53.606;9.872;2022-12-10T09:52:29;13.30;;;11.67;;
13805;SDS011;6974;53.606;9.872;2022-12-10T09:55:02;14.40;;;12.17;;
13805;SDS011;6974;53.606;9.872;2022-12-10T09:57:36;15.80;;;12.30;;
13805;SDS011;6974;53.606;9.872;2022-12-10T10:00:15;13.30;;;10.97;;
13805;SDS011;6974;53.606;9.872;2022-12-10T10:02:50;14.27;;;11.90;;
13805;SDS011;6974;53.606;9.872;2022-12-10T10:05:19;15.87;;;11.03;;
13805;SDS011;6974;53.606;9.872;2022-12-10T10:07:49;13.33;;;10.60;;
13805;SDS011;6974;53.606;9.872;2022-12-10T10:10:21;11.77;;;9.97;;
13805;SDS011;6974;53.606;9.872;2022-12-10T10:12:52;13.03;;;10.70;;
13805;SDS011;6974;53.606;9.872;2022-12-10T10:15:24;14.27;;;12.40;;
13805;SDS011;6974;53.606;9.872;2022-12-10T10:17:56;11.77;;;10.57;;
13805;SDS011;6974;53.606;9.872;2022-12-10T10:20:28;14.73;;;11.40;;
13805;SDS011;6974;53.606;9.872;2022-12-10T10:22:56;14.30;;;11.33;;
13805;SDS011;6974;53.606;9.872;2022-12-10T10:25:25;16.00;;;13.07;;
13805;SDS011;6974;53.606;9.872;2022-12-10T10:27:52;16.20;;;13.97;;
13805;SDS011;6974;53.606;9.872;2022-12-10T10:30:20;17.63;;;14.57;;
13805;SDS011;6974;53.606;9.872;2022-12-10T10:32:49;18.00;;;13.37;;
13805;SDS011;6974;53.606;9.872;2022-12-10T10:35:26;15.50;;;12.97;;
13805;SDS011;6974;53.606;9.872;2022-12-10T10:37:59;13.63;;;12.17;;
13805;SDS011;6974;53.606;9.872;2022-12-10T10:40:28;16.03;;;12.83;;
13805;SDS011;6974;53.606;9.872;2022-12-10T10:42:58;15.37;;;13.07;;
13805;SDS011;6974;53.606;9.872;2022-12-10T10:45:37;18.10;;;13.93;;
13805;SDS011;6974;53.606;9.872;2022-12-10T10:48:08;17.53;;;13.57;;
13805;SDS011;6974;53.606;9.872;2022-12-10T10:50:40;19.40;;;15.20;;
13805;SDS011;6974;53.606;9.872;2022-12-10T10:53:28;21.97;;;15.23;;
13805;SDS011;6974;53.606;9.872;2022-12-10T10:55:58;13.10;;;11.50;;
13805;SDS011;6974;53.606;9.872;2022-12-10T10:58:32;14.70;;;12.20;;
13805;SDS011;6974;53.606;9.872;2022-12-10T11:01:00;18.37;;;14.90;;
13805;SDS011;6974;53.606;9.872;2022-12-10T11:03:29;16.23;;;14.03;;
13805;SDS011;6974;53.606;9.872;2022-12-10T11:06:00;16.03;;;13.70;;
13805;SDS011;6974;53.606;9.872;2022-12-10T11:08:30;17.80;;;13.93;;
13805;SDS011;6974;53.606;9.872;2022-12-10T11:10:59;16.87;;;13.93;;
13805;SDS011;6974;53.606;9.872;2022-12-10T11:13:31;18.97;;;14.07;;
13805;SDS011;6974;53.606;9.872;2022-12-10T11:16:01;17.10;;;14.23;;
13805;SDS011;6974;53.606;9.872;2022-12-10T11:18:37;17.27;;;14.00;;
13805;SDS011;6974;53.606;9.872;2022-12-10T11:21:15;18.57;;;14.57;;
13805;SDS011;6974;53.606;9.872;2022-12-10T11:23:44;17.27;;;13.70;;
13805;SDS011;6974;53.606;9.872;2022-12-10T11:26:19;16.70;;;13.70;;
13805;SDS011;6974;53.606;9.872;2022-12-10T11:29:02;16.93;;;14.60;;
13805;SDS011;6974;53.606;9.872;2022-12-10T11:31:46;16.67;;;12.67;;
13805;SDS011;6974;53.606;9.872;2022-12-10T11:34:23;17.10;;;13.87;;
13805;SDS011;6974;53.606;9.872;2022-12-10T11:37:03;15.67;;;13.30;;
13805;SDS011;6974;53.606;9.872;2022-12-10T11:39:47;10.93;;;9.57;;
13805;SDS011;6974;53.606;9.872;2022-12-10T11:42:30;12.47;;;10.43;;
13805;SDS011;6974;53.606;9.872;2022-12-10T11:45:07;16.33;;;13.07;;
13805;SDS011;6974;53.606;9.872;2022-12-10T11:47:45;17.90;;;13.93;;
13805;SDS011;6974;53.606;9.872;2022-12-10T11:50:24;16.47;;;13.43;;
13805;SDS011;6974;53.606;9.872;2022-12-10T11:53:03;15.43;;;13.10;;
13805;SDS011;6974;53.606;9.872;2022-12-10T11:55:55;17.20;;;13.30;;
13805;SDS011;6974;53.606;9.872;2022-12-10T11:58:35;15.50;;;12.63;;
13805;SDS011;6974;53.606;9.872;2022-12-10T12:01:17;15.23;;;12.43;;
13805;SDS011;6974;53.606;9.872;2022-12-10T12:04:00;14.20;;;12.10;;
13805;SDS011;6974;53.606;9.872;2022-12-10T12:06:47;14.97;;;12.10;;
13805;SDS011;6974;53.606;9.872;2022-12-10T12:09:27;14.93;;;12.60;;
13805;SDS011;6974;53.606;9.872;2022-12-10T12:12:04;14.23;;;12.47;;
13805;SDS011;6974;53.606;9.872;2022-12-10T12:14:39;14.60;;;12.60;;
13805;SDS011;6974;53.606;9.872;2022-12-10T12:17:10;13.87;;;11.97;;
13805;SDS011;6974;53.606;9.872;2022-12-10T12:19:42;18.50;;;13.87;;
13805;SDS011;6974;53.606;9.872;2022-12-10T12:22:14;13.97;;;12.40;;
13805;SDS011;6974;53.606;9.872;2022-12-10T12:24:48;16.63;;;12.83;;
13805;SDS011;6974;53.606;9.872;2022-12-10T12:27:22;16.00;;;13.13;;
13805;SDS011;6974;53.606;9.872;2022-12-10T12:30:02;14.27;;;12.47;;
13805;SDS011;6974;53.606;9.872;2022-12-10T12:32:43;12.07;;;10.83;;
13805;SDS011;6974;53.606;9.872;2022-12-10T12:35:16;13.30;;;10.50;;
13805;SDS011;6974;53.606;9.872;2022-12-10T12:37:47;12.90;;;11.30;;
13805;SDS011;6974;53.606;9.872;2022-12-10T12:40:23;13.43;;;11.97;;
13805;SDS011;6974;53.606;9.872;2022-12-10T12:42:55;12.77;;;11.03;;
13805;SDS011;6974;53.606;9.872;2022-12-10T12:45:29;13.07;;;10.50;;
13805;SDS011;6974;53.606;9.872;2022-12-10T12:48:05;11.03;;;9.70;;
13805;SDS011;6974;53.606;9.872;2022-12-10T12:50:41;13.80;;;11.20;;
13805;SDS011;6974;53.606;9.872;2022-12-10T12:53:11;15.10;;;12.00;;
13805;SDS011;6974;53.606;9.872;2022-12-10T12:55:44;16.90;;;12.50;;
13805;SDS011;6974;53.606;9.872;2022-12-10T12:58:24;16.97;;;12.50;;
13805;SDS011;6974;53.606;9.872;2022-12-10T13:00:59;14.10;;;12.37;;
13805;SDS011;6974;53.606;9.872;2022-12-10T13:03:33;14.27;;;12.17;;
13805;SDS011;6974;53.606;9.872;2022-12-10T13:06:16;16.27;;;13.00;;
13805;SDS011;6974;53.606;9.872;2022-12-10T13:08:47;16.73;;;13.73;;
13805;SDS011;6974;53.606;9.872;2022-12-10T13:14:09;18.90;;;14.53;;
13805;SDS011;6974;53.606;9.872;2022-12-10T13:16:48;15.23;;;13.17;;
13805;SDS011;6974;53.606;9.872;2022-12-10T13:19:27;14.90;;;12.83;;
13805;SDS011;6974;53.606;9.872;2022-12-10T13:21:57;15.73;;;12.67;;
13805;SDS011;6974;53.606;9.872;2022-12-10T13:27:30;13.80;;;12.33;;
13805;SDS011;6974;53.606;9.872;2022-12-10T13:29:59;14.17;;;12.53;;
13805;SDS011;6974;53.606;9.872;2022-12-10T13:35:16;14.83;;;11.93;;
13805;SDS011;6974;53.606;9.872;2022-12-10T13:37:57;13.73;;;12.30;;
13805;SDS011;6974;53.606;9.872;2022-12-10T13:40:37;15.77;;;12.83;;
13805;SDS011;6974;53.606;9.872;2022-12-10T13:43:26;14.53;;;12.17;;
13805;SDS011;6974;53.606;9.872;2022-12-10T13:46:23;16.30;;;13.30;;
13805;SDS011;6974;53.606;9.872;2022-12-10T13:48:52;14.47;;;12.07;;
13805;SDS011;6974;53.606;9.872;2022-12-10T13:51:31;13.73;;;11.67;;
13805;SDS011;6974;53.606;9.872;2022-12-10T13:57:20;15.47;;;12.63;;
13805;SDS011;6974;53.606;9.872;2022-12-10T14:00:00;15.83;;;13.83;;
13805;SDS011;6974;53.606;9.872;2022-12-10T14:02:37;18.00;;;14.03;;
13805;SDS011;6974;53.606;9.872;2022-12-10T14:05:20;16.60;;;13.67;;
13805;SDS011;6974;53.606;9.872;2022-12-10T14:07:54;16.87;;;14.67;;
13805;SDS011;6974;53.606;9.872;2022-12-10T14:10:26;16.83;;;13.83;;
13805;SDS011;6974;53.606;9.872;2022-12-10T14:12:57;17.50;;;13.63;;
13805;SDS011;6974;53.606;9.872;2022-12-10T14:15:26;18.10;;;14.17;;
13805;SDS011;6974;53.606;9.872;2022-12-10T14:17:56;16.47;;;14.43;;
13805;SDS011;6974;53.606;9.872;2022-12-10T14:20:27;17.73;;;14.33;;
13805;SDS011;6974;53.606;9.872;2022-12-10T14:22:57;18.80;;;14.80;;
13805;SDS011;6974;53.606;9.872;2022-12-10T14:25:44;19.07;;;14.40;;
13805;SDS011;6974;53.606;9.872;2022-12-10T14:28:12;17.63;;;14.40;;
13805;SDS011;6974;53.606;9.872;2022-12-10T14:30:43;16.90;;;14.37;;
13805;SDS011;6974;53.606;9.872;2022-12-10T14:33:14;16.10;;;14.13;;
13805;SDS011;6974;53.606;9.872;2022-12-10T14:35:46;17.27;;;14.20;;
13805;SDS011;6974;53.606;9.872;2022-12-10T14:38:16;16.87;;;13.77;;
13805;SDS011;6974;53.606;9.872;2022-12-10T14:40:44;17.53;;;14.17;;
13805;SDS011;6974;53.606;9.872;2022-12-10T14:43:13;18.37;;;15.33;;
13805;SDS011;6974;53.606;9.872;2022-12-10T14:45:45;19.00;;;15.30;;
13805;SDS011;6974;53.606;9.872;2022-12-10T14:48:16;16.10;;;13.53;;
13805;SDS011;6974;53.606;9.872;2022-12-10T14:50:44;16.23;;;13.53;;
13805;SDS011;6974;53.606;9.872;2022-12-10T14:53:13;16.23;;;14.20;;
13805;SDS011;6974;53.606;9.872;2022-12-10T14:55:42;18.57;;;14.20;;
13805;SDS011;6974;53.606;9.872;2022-12-10T14:58:11;19.33;;;15.13;;
13805;SDS011;6974;53.606;9.872;2022-12-10T15:00:45;17.77;;;14.13;;
13805;SDS011;6974;53.606;9.872;2022-12-10T15:03:23;15.37;;;13.43;;
13805;SDS011;6974;53.606;9.872;2022-12-10T15:05:54;19.67;;;15.33;;
13805;SDS011;6974;53.606;9.872;2022-12-10T15:08:22;18.30;;;15.53;;
13805;SDS011;6974;53.606;9.872;2022-12-10T15:10:51;20.33;;;16.13;;